Albert Lea, MN

4:16 PM CDT on July 06, 2015 (GMT -0500)
City Beach | | Change Station
CLOSE
Current Station
Personal Weather Station
Location: Albert Lea, MN
Elevation: 1250 ft
Nearby Weather Stations

Elev 1250 ft 43.66 °N, 93.37 °W | Updated 27 seconds ago

Haze
Haze
76.1 °F
Feels Like 78 °F
N
0.9
Wind Variable Wind from ESE
Gusts 2.7 mph

Today
High -- | Low -- °F
--% Chance of Precip.
Yesterday
High -- | Low -- °F
Precip. -- in
5:38 AM 8:57 PM
Waning Gibbous, 72% visible
Pressure 29.93 in
Visibility 2.5 miles
Clouds
Heat Index 78 °F
Dew Point 52 °F
Humidity 43%
Rainfall 0.00 in
Snow Depth Not available.
UV 3.0 out of 12
Pollen .60 out of 12
Air Quality Not available.
Flu Activity Not available.
METAR KAEL 062052Z AUTO 35012G26KT 2 1/2SM HZ 21/15 A2993 RMK AO2 SKY OBSCURED

More Conditions Fewer Conditions

Pressure 29.93 in
Visibility 2.5 miles
Clouds
Heat Index 78 °F
Dew Point 52 °F
Humidity 43%
Rainfall 0.00 in
Snow Depth Not available.
UV 3.0 out of 12
Pollen .60 out of 12
Air Quality Not available.
Flu Activity Not available.
METAR KAEL 062052Z AUTO 35012G26KT 2 1/2SM HZ 21/15 A2993 RMK AO2 SKY OBSCURED

More Conditions Fewer Conditions

10-Day Weather Forecast

×

Almanac

Astronomy

Jul. 06, 2015 Rise Set
Actual Time
Civil Twilight
Nautical Twilight
Astronomical Twilight
Moon
Length of Visible Light
Length of Day
Tomorrow will be .
, % of the Moon is Illuminated

Today's Extremes

State Highs State Lows

Community

WunderPhotos

Upload Photos

1,835,651 photos uploaded!

WunderBlogs® & News

Nearby

Air Quality

  Air Quality AQ Index Pollutant
Not available.

Snow Depth

Station Depth Elevation

Earthquake Activity

City Distance Mag. Time & Date
Minimum magnitude displayed is 2.5.

Coastal Water Temperatures

Place Temperature

Stations

Nearby Weather Stations

Station Location Temp. Windchill Dew Point Humidity Wind Precip. Elev Updated Type